Terminal Aerodrome Forecast
Issued by NWS

Home | Current Version | Previous Version | Text Only | Print | Product List | Glossary On
Versions: 1 2 3 4 5 6 7 8 9 10 11 12 13 14 15 16 17 18 19 20 21 22 23
000
FTUS43 KDVN 241700
TAFBRL
TAF
KBRL 241727Z 2418/2518 15008KT P6SM SCT040 SCT250
     FM251000 16007KT P6SM VCTS SCT050CB BKN250
      TEMPO 2512/2515 3SM TSRA BR BKN040CB
     FM251500 18012KT 6SM -RA BR OVC040=

USA.gov is the U.S. government's official web portal to all federal, state and local government web resources and services.